Terminal Aerodrome Forecast
Issued by NWS

Home | Current Version | Previous Version | Text Only | Print | Product List | Glossary On
Versions: 1 2 3 4 5 6 7 8 9 10 11 12 13 14 15 16 17 18 19 20 21 22 23 24 25 26 27
000
FTUS44 KHGX 300721 AAA
TAFUTS
TAF AMD
KUTS 300721Z 3007/3106 00000KT P6SM SCT002 SCT250
      TEMPO 3007/3011 BKN001
     FM301600 06003KT P6SM SCT030 BKN250
     FM301900 07005KT P6SM SCT040 BKN250 PROB30 3019/3023 TSRA
      BKN035CB
     FM310300 02002KT P6SM SCT250=

USA.gov is the U.S. government's official web portal to all federal, state and local government web resources and services.